»·PEaware :: SWA1860 KBUR-KSFO

SWA1860 :: KBUR-KSFO

FLIGHT INFORMATION

Flight Status: Arrived
Operator:
Southwest Airlines
More flights by this operator :: More flights under this callsign
Pilot: Ben F. (2808)
Aircraft: BOEING 737-300
(B733)
More flights by this aircraft type
Origin: KBUR Bob Hope-Burbank
United States
Destination: KSFO San Francisco Intl
United States
More flights between these airports :: More routes between these airports
Route: OROSZ2 COREZ MAKRS SERFR SERFR3
File this flight plan on PilotEdge
Remarks:
Altitude:
(Current/Filed)
36,000ft
Speed:
(Current/Filed)
432kts
Departed: 18-Oct-18 08:36 AM
Arrived: 18-Oct-18 09:31 AM
Distance/Time
Traveled:
283nm/0:54
Distance/Time
To Go:
Arrived

Flight Plot

Page will automatically refresh every two minutes.

Flight plan parsing failed; only flown route is shown


Map Options




Map Legend


Flown Route
Filed Route
Departure Airport
Arrival Airport
Navaid (VOR, NDB)
Fix

Horizontal Profiles

Position Reports

Time Latitude Longitude Heading Altitude Ground
Speed
18-Oct-18 08:16 34.196747 -118.351076 0 783ft 0kts
18-Oct-18 08:17 34.196747 -118.351076 179 783ft 0kts
18-Oct-18 08:18 34.196747 -118.351076 179 783ft 0kts
18-Oct-18 08:19 34.196747 -118.351076 179 783ft 0kts
18-Oct-18 08:20 34.196747 -118.351076 179 783ft 0kts
18-Oct-18 08:21 34.196747 -118.351076 179 783ft 0kts
18-Oct-18 08:22 34.196747 -118.351076 179 783ft 0kts
18-Oct-18 08:23 34.196747 -118.351076 179 783ft 0kts
18-Oct-18 08:24 34.196747 -118.351076 179 783ft 0kts
18-Oct-18 08:25 34.196747 -118.351076 179 783ft 0kts
18-Oct-18 08:26 34.197148 -118.350840 251 783ft 2kts
18-Oct-18 08:27 34.197166 -118.350640 271 783ft 0kts
18-Oct-18 08:28 34.197166 -118.350640 271 783ft 0kts
18-Oct-18 08:29 34.197166 -118.350641 271 783ft 0kts
18-Oct-18 08:30 34.197166 -118.350641 271 783ft 0kts
18-Oct-18 08:31 34.197166 -118.350641 271 783ft 0kts
18-Oct-18 08:32 34.197167 -118.351316 269 783ft 6kts
18-Oct-18 08:33 34.198331 -118.355235 347 783ft 23kts
18-Oct-18 08:34 34.205160 -118.357122 347 783ft 26kts
18-Oct-18 08:35 34.211463 -118.358942 324 783ft 6kts
18-Oct-18 08:36 34.211609 -118.359116 311 783ft 0kts
18-Oct-18 08:37 34.211507 -118.360244 169 783ft 0kts
18-Oct-18 08:38 34.189075 -118.354274 169 1052ft 181kts
18-Oct-18 08:39 34.144701 -118.379383 222 3663ft 186kts
18-Oct-18 08:40 34.100422 -118.427417 222 5122ft 244kts
18-Oct-18 08:41 34.070338 -118.501940 293 7197ft 280kts
18-Oct-18 08:42 34.134703 -118.547108 342 9901ft 286kts
18-Oct-18 08:43 34.213426 -118.579154 342 12095ft 319kts
18-Oct-18 08:44 34.301381 -118.615205 342 14183ft 351kts
18-Oct-18 08:45 34.393906 -118.655745 335 16522ft 369kts
18-Oct-18 08:46 34.485282 -118.715386 330 18787ft 382kts
18-Oct-18 08:47 34.577896 -118.780979 330 20850ft 394kts
18-Oct-18 08:48 34.673687 -118.848926 329 22733ft 405kts
18-Oct-18 08:49 34.772203 -118.918893 329 24418ft 417kts
18-Oct-18 08:50 34.873361 -118.990936 329 25930ft 428kts
18-Oct-18 08:51 34.976335 -119.064500 328 27525ft 433kts
18-Oct-18 08:52 35.079838 -119.138986 328 29348ft 429kts
18-Oct-18 08:53 35.181564 -119.211906 328 30892ft 429kts
18-Oct-18 08:54 35.283520 -119.285357 327 32301ft 427kts
18-Oct-18 08:55 35.375582 -119.351881 327 33377ft 426kts
18-Oct-18 08:56 35.477205 -119.425522 327 34407ft 425kts
18-Oct-18 08:57 35.565704 -119.514449 288 35169ft 415kts
18-Oct-18 08:58 35.582316 -119.653074 279 35789ft 416kts
18-Oct-18 08:59 35.602823 -119.792883 280 36204ft 420kts
18-Oct-18 09:00 35.623625 -119.933679 280 36206ft 418kts
18-Oct-18 09:01 35.644117 -120.073574 280 36212ft 418kts
18-Oct-18 09:02 35.664246 -120.213823 279 36210ft 417kts
18-Oct-18 09:03 35.685889 -120.353620 291 36200ft 416kts
18-Oct-18 09:04 35.735762 -120.482629 294 36212ft 418kts
18-Oct-18 09:05 35.785151 -120.611648 294 36209ft 418kts
18-Oct-18 09:06 35.832998 -120.737583 294 36213ft 418kts
18-Oct-18 09:07 35.882106 -120.867147 294 36210ft 418kts
18-Oct-18 09:08 35.931044 -120.996756 294 36208ft 418kts
18-Oct-18 09:09 35.980222 -121.127516 295 36206ft 426kts
18-Oct-18 09:10 36.030359 -121.261390 296 36220ft 434kts
18-Oct-18 09:11 36.090976 -121.386467 327 36208ft 425kts
18-Oct-18 09:12 36.189030 -121.458676 328 33820ft 433kts
18-Oct-18 09:13 36.290159 -121.537562 328 30622ft 437kts
18-Oct-18 09:14 36.392699 -121.617952 328 27458ft 436kts
18-Oct-18 09:15 36.489451 -121.694225 327 25245ft 414kts
18-Oct-18 09:16 36.583254 -121.768680 327 23034ft 394kts
18-Oct-18 09:17 36.672855 -121.839618 327 20907ft 377kts
18-Oct-18 09:18 36.761605 -121.900424 347 18883ft 367kts
18-Oct-18 09:19 36.859956 -121.927324 347 16771ft 360kts
18-Oct-18 09:20 36.953909 -121.953858 344 15011ft 340kts
18-Oct-18 09:21 37.040013 -121.987414 343 12558ft 325kts
18-Oct-18 09:22 37.120848 -122.018944 343 10278ft 309kts
18-Oct-18 09:23 37.188644 -122.045387 343 9756ft 248kts
18-Oct-18 09:24 37.255957 -122.071727 343 8581ft 262kts
18-Oct-18 09:25 37.324566 -122.098796 343 7067ft 262kts
18-Oct-18 09:26 37.391944 -122.124522 345 5968ft 257kts
18-Oct-18 09:27 37.458919 -122.147491 344 4809ft 255kts
18-Oct-18 09:28 37.523949 -122.169901 342 3151ft 245kts
18-Oct-18 09:29 37.558199 -122.229967 296 2319ft 207kts
18-Oct-18 09:30 37.580717 -122.284812 298 1323ft 149kts
18-Oct-18 09:31 37.599530 -122.329399 298 532ft 148kts
18-Oct-18 09:32 37.617168 -122.371339 298 20ft 91kts
18-Oct-18 09:33 37.618962 -122.378027 267 20ft 2kts
18-Oct-18 09:34 37.616237 -122.379887 208 20ft 18kts
18-Oct-18 09:35 37.611347 -122.383268 242 20ft 16kts

Navigation Log

Ident Type
Flight plan parsing failed, navigation log unavailable